Terminal Aerodrome Forecast
Issued by NWS Paducah, KY

Home | Current Version | Previous Version | Graphics & Text | Print | Product List | Glossary On
Versions: 1 2 3 4 5 6 7 8 9 10 11 12 13 14 15 16 17 18 19
000
FTUS43 KPAH 192324
TAFPAH
TAF
KPAH 192324Z 2000/2024 27010KT P6SM SCT025 BKN100
     FM200230 25008KT P6SM VCSH OVC060
      TEMPO 2003/2007 2SM -TSRA BR BKN035CB
     FM201000 25009KT 5SM BR SCT025 OVC035
     FM201400 27013G23KT P6SM BKN050
     FM202000 27010G20KT P6SM SCT050=

USA.gov is the U.S. government's official web portal to all federal, state and local government web resources and services.